Arusha, Tanzania

8:23 AM EAT on July 28, 2016 (GMT +0300)
Arusha | | Change Station

Elev 4514 ft 3.38 °S, 36.64 °E | Updated 8 minutes ago

Partly Cloudy
Partly Cloudy
60.5 °F
Feels Like 60.5 °F
N
4.0
Wind Variable Wind from SSE
Gusts 10.0 mph

Today
High -- | Low -- °F
--% Chance of Precip.
Yesterday
High -- | Low -- °F
Precip. -- in
Pressure 30.09 in
Visibility 6.2 miles
Clouds Few 2800 ft
Dew Point 57 °F
Humidity 87%
Rainfall 0.00 in
Snow Depth Not available.
6:41 AM 6:39 PM
Waning Crescent, 36% visible
METAR HTKJ 280400Z 12005KT 9999 FEW028 17/14 Q1019 NOSIG
Pressure 30.09 in
Visibility 6.2 miles
Clouds Few 2800 ft
Dew Point 57 °F
Humidity 87%
Rainfall 0.00 in
Snow Depth Not available.
6:41 AM 6:39 PM
Waning Crescent, 36% visible
METAR HTKJ 280400Z 12005KT 9999 FEW028 17/14 Q1019 NOSIG

10-Day Weather Forecast

No radar image for this location.
×

Almanac

Astronomy

Jul. 28, 2016 Rise Set
Actual Time
Civil Twilight
Nautical Twilight
Astronomical Twilight
Moon
Length of Visible Light
Length of Day
Tomorrow will be .
, % of the Moon is Illuminated

Today's Extremes

Country Highs Country Lows

Community

WunderPhotos

Upload Photos

1,928,061 photos uploaded!

WunderBlog® & News

Nearby

Air Quality

  Air Quality AQ Index Pollutant
Not available.

Snow Depth

Station Depth Elevation

Earthquake Activity

City Distance Mag. Time & Date
Minimum magnitude displayed is 2.5.

Coastal Water Temperatures

Place Temperature

Stations

Nearby Weather Stations

Station Location Temp. Windchill Dew Point Humidity Wind Precip. Elev Updated Type